Report METAR

 

KSJC - San Jose, California, USA
Distance from station: NE 14km
Dati ricevuti: 28/02/2024 20:53
Sereno
Sereno
 Vento da calmo
Vento: Calma
Temperatura: 18°C
P.to Rugiada: 2°C
Umidità: 34%
Barometro: 1018.3 hPa
Nuvole: Sereno
Visibility: 16 km
2024/02/28 19:53 KSJC 281953Z 00000KT 10SM CLR 18/02 A3007 RMK AO2 SLP181 T01830017
KNUQ - Moffett Nas/Mtn, California, USA
Distance from station: N 14km
Dati ricevuti: 28/02/2024 20:55
Sereno
Sereno
 Vento da N
Vento: N 9 km/h
Temperatura: 15°C
P.to Rugiada: 5°C
Umidità: 51%
Barometro: 1018.3 hPa
Nuvole: Sereno
Visibility: 16 km
2024/02/28 19:55 KNUQ 281955Z AUTO 36005KT 10SM CLR 15/05 A3007 RMK AO2
 
KPAO - Palo Alto, California, USA
Distance from station: NNO 23km
Dati ricevuti: 28/02/2024 20:47
Sereno
Sereno
 Vento da NNE
Vento: NNE 9 km/h
Temperatura: 14°C
P.to Rugiada: 7°C
Umidità: 63%
Barometro: 1019 hPa
Nuvole: Sereno
Visibility: 16 km
2024/02/28 19:47 KPAO 281947Z 03005KT 10SM SKC 14/07 A3009
KRHV - San Jose/Reid, California, USA
Distance from station: ENE 19km
Dati ricevuti: 28/02/2024 20:47
Sereno
Sereno
 Vento da calmo
Vento: Calma
Temperatura: 17°C
P.to Rugiada: 2°C
Umidità: 37%
Barometro: 1018.6 hPa
Nuvole: Sereno
Visibility: 16 km
2024/02/28 19:47 KRHV 281947Z 00000KT 10SM SKC 17/02 A3008
 
KOAK - Oakland, California, USA
Distance from station: NNO 50km
Dati ricevuti: 28/02/2024 20:53
Sereno
Sereno
 Vento da O
Vento: O 7 km/h
Temperatura: 14°C
P.to Rugiada: 7°C
Umidità: 63%
Barometro: 1018.6 hPa
Nuvole: Sereno
Visibility: 16 km
2024/02/28 19:53 KOAK 281953Z 26004KT 10SM CLR 14/07 A3008 RMK AO2 SLP187 T01390067
KSQL - San Carlos Airpo, California, USA
Distance from station: NO 34km
Dati ricevuti: 28/02/2024 19:50
DATI Obsoleti
Sereno
Sereno
 Vento da ENE
Vento: ENE 6 km/h
Temperatura: 13°C
P.to Rugiada: 8°C
Umidità: 72%
Barometro: 1019.3 hPa
Nuvole: Sereno
Visibility: 16 km
2024/02/28 18:50 KSQL 281850Z 07003KT 10SM CLR 13/08 A3010
 
KSFO - San Francisco, California, USA
Distance from station: NO 49km
Dati ricevuti: 28/02/2024 20:56
Sereno
Sereno
 Vento da NE
Vento: NE 7 km/h
Temperatura: 14°C
P.to Rugiada: 8°C
Umidità: 67%
Barometro: 1018.3 hPa
Nuvole: Sereno
Visibility: 16 km
2024/02/28 19:56 KSFO 281956Z 05004KT 10SM CLR 14/08 A3007 RMK AO2 SLP184 T01390083 $
KE16 - San Martin, California, USA
Distance from station: ESE 43km
Dati ricevuti: 28/02/2024 20:55
Sereno
Sereno
 Vento da ESE
Vento: ESE 7 km/h
Temperatura: 17°C
P.to Rugiada: 3°C
Umidità: 39%
Barometro: 1018.6 hPa
Nuvole: Sereno
Visibility: 16 km
2024/02/28 19:55 KE16 281955Z AUTO 12004KT 10SM CLR 17/03 A3008 RMK AO2 PWINO PNO
 
KWVI - Watsonville, California, USA
Distance from station: SSE 44km
Dati ricevuti: 28/02/2024 20:53
Sereno
Sereno
 Vento da Variabile
Vento: Variabile 6 km/h
Temperatura: 18°C
P.to Rugiada: 3°C
Umidità: 37%
Barometro: 1018.3 hPa
Nuvole: Sereno
Visibility: 16 km
2024/02/28 19:53 KWVI 281953Z AUTO VRB03KT 10SM CLR 18/03 A3007 RMK AO2 SLP181 T01780033
KHAF - Half Moon Bay, California, USA
Distance from station: ONO 50km
Dati ricevuti: 28/02/2024 20:55
Sereno
Sereno
 Vento da S
Vento: S 9 km/h
Temperatura: 15°C
P.to Rugiada: 8°C
Umidità: 63%
Barometro: 1018.6 hPa
Nuvole: Sereno
Visibility: 11 km
2024/02/28 19:55 KHAF 281955Z AUTO 17005KT 7SM CLR 15/08 A3008 RMK AO2
 
KHWD - Hayward, California, USA
Distance from station: N 44km
Dati ricevuti: 28/02/2024 20:54
Sereno
Sereno
 Vento da O
Vento: O 9 km/h
Temperatura: 17°C
P.to Rugiada: 5°C
Umidità: 45%
Barometro: 1018.3 hPa
Nuvole: Sereno
Visibility: 16 km
2024/02/28 19:54 KHWD 281954Z 26005KT 10SM CLR 17/05 A3007 RMK AO2 SLP194 T01670050
KLVK - Livermore, California, USA
Distance from station: NNE 51km
Dati ricevuti: 28/02/2024 20:53
Sereno
Sereno
 Vento da calmo
Vento: Calma
Temperatura: 17°C
P.to Rugiada: 2°C
Umidità: 37%
Barometro: 1018.3 hPa
Nuvole: Sereno
Visibility: 16 km
2024/02/28 19:53 KLVK 281953Z 00000KT 10SM CLR 17/02 A3007 RMK AO2 SLP181 T01670022